Time;durP1;ratioP1;P1;durP2;ratioP2;P2;SDS_P1;SDS_P2;PMS_P1;PMS_P2;Temp;Humidity;BMP_temperature;BMP_pressure;BME280_temperature;BME280_humidity;BME280_pressure;Samples;Min_cycle;Max_cycle;Signal;HPM_P1;HPM_P2
2021/05/27 00:00:08;;;;;;;28.17;21.85;;;11.90;71.90;;;;;;5051781;28;20029;-65
2021/05/27 00:02:33;;;;;;;27.05;19.92;;;11.90;71.90;;;;;;5051995;28;20080;-66
2021/05/27 00:04:59;;;;;;;26.15;18.05;;;11.90;71.80;;;;;;5051637;28;20480;-65
2021/05/27 00:07:24;;;;;;;25.27;19.80;;;11.90;71.80;;;;;;5051533;28;20021;-66
2021/05/27 00:09:50;;;;;;;26.85;18.75;;;11.90;71.80;;;;;;5051931;28;20028;-66
2021/05/27 00:12:15;;;;;;;22.40;17.92;;;11.90;71.70;;;;;;5051515;28;20043;-65
2021/05/27 00:14:41;;;;;;;20.40;15.70;;;11.90;71.60;;;;;;5051492;28;20384;-66
2021/05/27 00:17:06;;;;;;;20.40;15.82;;;11.90;71.60;;;;;;5051731;28;20049;-65
2021/05/27 00:19:32;;;;;;;25.02;15.43;;;11.90;71.50;;;;;;5051205;28;20025;-65
2021/05/27 00:21:57;;;;;;;19.38;13.77;;;11.90;71.40;;;;;;5051223;28;20029;-64
2021/05/27 00:24:23;;;;;;;19.42;12.18;;;11.90;71.70;;;;;;5051700;28;20033;-64
2021/05/27 00:26:48;;;;;;;20.27;9.90;;;11.90;71.60;;;;;;5050876;28;20056;-65
2021/05/27 00:29:14;;;;;;;13.07;9.73;;;11.90;71.40;;;;;;5051072;28;20024;-65
2021/05/27 00:31:39;;;;;;;11.82;8.40;;;11.90;71.10;;;;;;5051554;28;20021;-65
2021/05/27 00:34:05;;;;;;;12.93;8.48;;;11.90;71.40;;;;;;5051032;28;20020;-65
2021/05/27 00:39:06;;;;;;;18.13;10.68;;;11.90;71.40;;;;;;5620815;22;20061;-64
2021/05/27 00:41:32;;;;;;;13.85;9.65;;;11.90;71.10;;;;;;5010070;28;20084;-64
2021/05/27 00:43:57;;;;;;;15.98;11.02;;;12.00;71.50;;;;;;5012683;28;20028;-58
2021/05/27 00:46:23;;;;;;;16.65;13.52;;;11.90;70.70;;;;;;5029773;28;20030;-66
2021/05/27 00:49:00;;;;;;;27.33;16.17;;;11.90;71.00;;;;;;5029448;28;20218;-66
2021/05/27 00:51:28;;;;;;;20.98;17.08;;;11.90;71.10;;;;;;5030317;28;20021;-66
2021/05/27 00:53:56;;;;;;;26.33;19.10;;;11.90;71.20;;;;;;5012237;28;20075;-66
2021/05/27 00:56:21;;;;;;;25.65;19.48;;;11.90;71.30;;;;;;5029683;28;20018;-66
2021/05/27 00:58:47;;;;;;;25.88;17.10;;;11.90;71.30;;;;;;5029625;28;20087;-66
2021/05/27 01:01:12;;;;;;;20.50;17.25;;;11.90;71.10;;;;;;5030520;28;20040;-66
2021/05/27 01:03:38;;;;;;;25.30;18.48;;;11.90;71.00;;;;;;5012510;28;20033;-66
2021/05/27 01:06:04;;;;;;;25.63;18.13;;;12.00;71.10;;;;;;5012416;28;20105;-66
2021/05/27 01:08:29;;;;;;;24.15;18.95;;;11.90;71.20;;;;;;5030156;28;20123;-66
2021/05/27 01:10:55;;;;;;;24.90;19.38;;;11.90;71.10;;;;;;5013373;28;20025;-66
2021/05/27 01:13:21;;;;;;;31.20;21.33;;;11.90;71.40;;;;;;5010389;28;20026;-66
2021/05/27 01:15:48;;;;;;;26.63;17.90;;;11.90;71.50;;;;;;5010159;28;20037;-66
2021/05/27 01:18:14;;;;;;;25.45;15.57;;;11.90;71.40;;;;;;5010507;28;20025;-67
2021/05/27 01:20:47;;;;;;;24.88;19.10;;;11.90;71.40;;;;;;4992751;28;20032;-66
2021/05/27 01:23:13;;;;;;;28.63;21.63;;;11.90;71.50;;;;;;5010507;28;20041;-67
2021/05/27 01:25:40;;;;;;;30.65;22.75;;;11.90;71.30;;;;;;5010130;28;20026;-67
2021/05/27 01:28:05;;;;;;;30.83;22.63;;;11.90;71.40;;;;;;4992423;28;20049;-65
2021/05/27 01:30:31;;;;;;;33.40;23.85;;;11.90;71.30;;;;;;4992553;28;20468;-66
2021/05/27 01:32:56;;;;;;;34.53;24.45;;;11.90;71.40;;;;;;5010262;28;20069;-65
2021/05/27 01:35:23;;;;;;;32.67;24.17;;;11.90;71.40;;;;;;4992409;28;20022;-65
2021/05/27 01:37:49;;;;;;;37.53;24.83;;;11.90;71.00;;;;;;5009774;28;20137;-66
2021/05/27 01:40:17;;;;;;;33.45;25.33;;;11.90;71.30;;;;;;5009810;28;20133;-65
2021/05/27 01:42:43;;;;;;;32.88;24.80;;;11.90;71.30;;;;;;5010193;28;20041;-66
2021/05/27 01:45:09;;;;;;;36.53;27.20;;;11.90;71.30;;;;;;5009609;28;20018;-66
2021/05/27 01:47:35;;;;;;;35.90;25.48;;;11.80;71.50;;;;;;5009741;28;20040;-65
2021/05/27 01:50:00;;;;;;;39.72;25.17;;;11.90;71.30;;;;;;5009863;28;20030;-65
2021/05/27 01:52:26;;;;;;;48.78;25.50;;;11.80;71.40;;;;;;5009910;28;20467;-66
2021/05/27 01:54:51;;;;;;;37.60;27.20;;;11.80;71.40;;;;;;5009191;28;20030;-65
2021/05/27 01:57:17;;;;;;;37.38;26.33;;;11.80;71.40;;;;;;5009710;28;20073;-65
2021/05/27 01:59:42;;;;;;;35.25;25.83;;;11.80;71.50;;;;;;5009945;28;20022;-66
2021/05/27 02:02:08;;;;;;;33.08;23.40;;;11.80;71.50;;;;;;5009646;28;20060;-66
2021/05/27 02:04:33;;;;;;;31.63;24.55;;;11.80;71.30;;;;;;5009541;28;20101;-66
2021/05/27 02:07:08;;;;;;;35.42;24.98;;;11.80;71.40;;;;;;5009792;28;20156;-66
2021/05/27 02:09:33;;;;;;;32.33;24.00;;;11.70;71.50;;;;;;5009367;28;20018;-66
2021/05/27 02:11:59;;;;;;;36.08;24.85;;;11.70;71.20;;;;;;5009720;28;20022;-66
2021/05/27 02:14:24;;;;;;;31.33;20.27;;;11.70;71.40;;;;;;5009636;28;20109;-66
2021/05/27 02:16:50;;;;;;;25.75;20.90;;;11.70;71.30;;;;;;5009414;28;20033;-66
2021/05/27 02:19:16;;;;;;;26.50;17.77;;;11.70;71.50;;;;;;5009535;28;20026;-66
2021/05/27 02:21:42;;;;;;;28.35;19.58;;;11.70;71.40;;;;;;5009723;28;20104;-66
2021/05/27 02:24:08;;;;;;;28.35;17.55;;;11.80;71.50;;;;;;5009283;28;20449;-65
2021/05/27 02:26:34;;;;;;;27.00;18.08;;;11.80;71.40;;;;;;5009367;28;20022;-66
2021/05/27 02:29:02;;;;;;;28.35;20.88;;;11.80;71.40;;;;;;5009505;28;20105;-66
2021/05/27 02:31:28;;;;;;;25.00;20.08;;;11.80;71.30;;;;;;5009741;28;20026;-66
2021/05/27 02:33:53;;;;;;;30.88;22.33;;;11.80;71.20;;;;;;5009392;28;20105;-66
2021/05/27 02:36:19;;;;;;;28.50;22.08;;;11.80;71.50;;;;;;5009321;28;20637;-66
2021/05/27 02:38:45;;;;;;;23.65;16.65;;;11.80;71.60;;;;;;5009221;28;20183;-66
2021/05/27 02:41:11;;;;;;;24.67;17.80;;;11.80;71.60;;;;;;5009349;28;20046;-66
2021/05/27 02:43:36;;;;;;;22.25;14.70;;;11.80;71.60;;;;;;5009280;28;20364;-65
2021/05/27 02:46:02;;;;;;;20.85;14.70;;;11.80;71.70;;;;;;5009200;28;20033;-65
2021/05/27 02:48:28;;;;;;;17.45;12.43;;;11.90;71.70;;;;;;5009458;28;20388;-65
2021/05/27 02:50:54;;;;;;;20.20;12.18;;;11.80;71.70;;;;;;5009211;28;20022;-65
2021/05/27 02:53:20;;;;;;;21.80;11.93;;;11.80;71.80;;;;;;5009079;28;20022;-65
2021/05/27 02:55:46;;;;;;;15.70;10.95;;;11.80;71.90;;;;;;5009327;28;20037;-65
2021/05/27 02:58:11;;;;;;;16.23;12.20;;;11.80;72.20;;;;;;5009501;28;20030;-65
2021/05/27 03:00:37;;;;;;;19.73;12.55;;;11.90;72.70;;;;;;5009136;28;20464;-65
2021/05/27 03:03:02;;;;;;;21.83;12.68;;;11.90;73.30;;;;;;5009041;28;20522;-65
2021/05/27 03:05:28;;;;;;;19.27;13.45;;;11.90;73.80;;;;;;5009435;28;20080;-65
2021/05/27 03:07:53;;;;;;;22.10;13.77;;;11.90;74.50;;;;;;5011029;28;20057;-65
2021/05/27 03:10:19;;;;;;;21.40;16.08;;;11.90;75.30;;;;;;5012463;28;20038;-65
2021/05/27 03:12:45;;;;;;;36.75;27.75;;;11.80;75.50;;;;;;5012617;28;20113;-65
2021/05/27 03:15:10;;;;;;;39.30;28.30;;;11.80;75.70;;;;;;5012762;28;20081;-65
2021/05/27 03:17:36;;;;;;;36.83;27.08;;;11.70;76.90;;;;;;5012439;28;20023;-65
2021/05/27 03:20:02;;;;;;;33.13;24.25;;;11.70;78.10;;;;;;5012408;28;20061;-65
2021/05/27 03:22:28;;;;;;;26.85;19.35;;;11.70;78.40;;;;;;5012543;28;20476;-65
2021/05/27 03:24:53;;;;;;;27.95;18.48;;;11.60;78.50;;;;;;5012267;28;20056;-66
2021/05/27 03:27:19;;;;;;;24.30;17.55;;;11.50;77.90;;;;;;5019181;28;20443;-65
2021/05/27 03:29:45;;;;;;;23.90;17.13;;;11.50;78.10;;;;;;5029685;28;20100;-65
2021/05/27 03:32:10;;;;;;;25.13;16.38;;;11.50;78.00;;;;;;5032144;28;20120;-65
2021/05/27 03:34:36;;;;;;;24.45;15.90;;;11.50;77.70;;;;;;5031903;28;20029;-65
2021/05/27 03:37:02;;;;;;;28.30;15.27;;;11.50;77.40;;;;;;5031666;28;20025;-65
2021/05/27 03:39:27;;;;;;;29.52;16.23;;;11.60;77.50;;;;;;5010922;28;20046;-65
2021/05/27 03:41:53;;;;;;;20.98;13.23;;;11.50;76.80;;;;;;5012047;28;20026;-64
2021/05/27 03:44:18;;;;;;;27.42;13.95;;;11.50;76.20;;;;;;5012005;28;20033;-64
2021/05/27 03:46:44;;;;;;;27.27;13.07;;;11.50;76.10;;;;;;5012137;28;20033;-64
2021/05/27 03:49:09;;;;;;;23.60;12.40;;;11.50;76.30;;;;;;5011910;28;20030;-64
2021/05/27 03:51:35;;;;;;;22.55;12.88;;;11.50;75.90;;;;;;5011646;28;20033;-64
2021/05/27 03:54:01;;;;;;;21.40;13.30;;;11.60;76.20;;;;;;5011761;28;20029;-64
2021/05/27 03:56:27;;;;;;;20.52;12.70;;;11.60;75.90;;;;;;5012114;28;20018;-64
2021/05/27 04:01:37;;;;;;;24.23;12.48;;;11.60;75.70;;;;;;5011504;28;20052;-64
2021/05/27 04:09:30;;;;;;;20.58;12.65;;;11.60;76.00;;;;;;5011538;28;20037;-66
2021/05/27 04:12:45;;;;;;;18.55;12.80;;;11.60;75.80;;;;;;5011675;28;20026;-66
2021/05/27 04:14:41;;;;;;;22.33;12.18;;;11.60;76.00;;;;;;5011656;28;20054;-66
2021/05/27 04:17:07;;;;;;;21.20;11.55;;;11.60;75.90;;;;;;5011309;28;20048;-67
2021/05/27 04:19:33;;;;;;;17.08;11.95;;;11.70;75.70;;;;;;5010915;28;20057;-67
2021/05/27 04:21:58;;;;;;;21.73;11.27;;;11.60;75.90;;;;;;5011371;28;20022;-66
2021/05/27 04:24:24;;;;;;;23.55;12.07;;;11.70;75.60;;;;;;5011165;28;20026;-66
2021/05/27 04:26:49;;;;;;;25.58;12.88;;;11.70;74.80;;;;;;5010663;28;20040;-67
2021/05/27 04:29:15;;;;;;;21.65;12.15;;;11.60;74.60;;;;;;5010616;28;20113;-67
2021/05/27 04:31:40;;;;;;;27.45;11.60;;;11.50;74.70;;;;;;5011347;28;20113;-67
2021/05/27 04:34:06;;;;;;;26.85;12.52;;;11.60;74.20;;;;;;5010905;28;20057;-67
2021/05/27 04:36:31;;;;;;;23.20;11.88;;;11.60;74.40;;;;;;5010756;28;20022;-67
2021/05/27 04:38:57;;;;;;;25.98;12.23;;;11.60;74.80;;;;;;5011886;28;20029;-66
2021/05/27 04:41:22;;;;;;;27.17;12.88;;;11.60;74.60;;;;;;5030434;28;20606;-65
2021/05/27 04:43:53;;;;;;;30.98;13.27;;;11.50;74.40;;;;;;5030165;28;20550;-64
2021/05/27 04:46:19;;;;;;;24.30;12.60;;;11.50;73.20;;;;;;5030468;28;20282;-66
2021/05/27 04:48:44;;;;;;;23.65;12.50;;;11.50;74.10;;;;;;5030400;28;20072;-65
2021/05/27 04:51:10;;;;;;;28.13;13.02;;;11.50;73.20;;;;;;4995622;28;20055;-67
2021/05/27 04:53:35;;;;;;;27.38;11.90;;;11.50;72.30;;;;;;5017716;28;20049;-61
2021/05/27 04:56:01;;;;;;;23.65;12.13;;;11.40;72.00;;;;;;5018466;28;20109;-61
2021/05/27 04:58:29;;;;;;;27.80;12.23;;;11.50;72.10;;;;;;5018149;28;20695;-62
2021/05/27 05:00:55;;;;;;;25.00;12.98;;;11.50;72.60;;;;;;5010008;28;20113;-62
2021/05/27 05:03:20;;;;;;;28.33;12.55;;;11.40;72.60;;;;;;5022224;28;20113;-62
2021/05/27 05:05:46;;;;;;;23.30;12.98;;;11.50;73.30;;;;;;5008252;28;20037;-62
2021/05/27 05:08:11;;;;;;;27.88;13.77;;;11.60;72.70;;;;;;5014131;28;20415;-61
2021/05/27 05:10:37;;;;;;;25.48;12.70;;;11.60;72.80;;;;;;5012893;28;20022;-62
2021/05/27 05:13:04;;;;;;;28.65;14.13;;;11.60;72.80;;;;;;5008186;28;20018;-62
2021/05/27 05:15:35;;;;;;;32.35;13.35;;;11.60;73.20;;;;;;5008709;28;20029;-62
2021/05/27 05:18:07;;;;;;;27.15;13.25;;;11.70;72.90;;;;;;5019933;28;20047;-62
2021/05/27 05:20:38;;;;;;;24.38;13.00;;;11.60;72.80;;;;;;5028658;28;20026;-61
2021/05/27 05:23:04;;;;;;;31.42;14.25;;;11.70;73.10;;;;;;5028703;28;20536;-61
2021/05/27 05:25:30;;;;;;;29.25;13.93;;;11.60;72.70;;;;;;5029052;28;20108;-61
2021/05/27 05:27:56;;;;;;;25.23;14.10;;;11.60;73.60;;;;;;5029024;28;20049;-62
2021/05/27 05:30:26;;;;;;;30.27;14.07;;;11.50;73.60;;;;;;5028270;28;20478;-63
2021/05/27 05:32:52;;;;;;;31.08;14.93;;;11.50;74.30;;;;;;5028804;28;20555;-63
2021/05/27 05:35:17;;;;;;;30.65;14.40;;;11.40;74.50;;;;;;5028786;28;20025;-61
2021/05/27 05:37:43;;;;;;;28.88;14.80;;;11.40;74.50;;;;;;5028859;28;20032;-62
2021/05/27 05:40:10;;;;;;;23.67;14.13;;;11.50;75.10;;;;;;5028164;28;20144;-62
2021/05/27 05:42:36;;;;;;;32.80;14.23;;;11.50;74.80;;;;;;5028649;28;20104;-62
2021/05/27 05:45:02;;;;;;;31.52;14.25;;;11.50;75.00;;;;;;5028513;28;20029;-63
2021/05/27 05:47:28;;;;;;;34.97;15.30;;;11.40;74.50;;;;;;5028601;28;20022;-62
2021/05/27 05:49:53;;;;;;;24.60;12.70;;;11.40;75.20;;;;;;5028401;28;20108;-62
2021/05/27 05:52:20;;;;;;;30.25;13.00;;;11.30;74.70;;;;;;5028071;28;20072;-61
2021/05/27 05:54:45;;;;;;;25.35;13.70;;;11.30;74.90;;;;;;5028481;28;20106;-61
2021/05/27 05:57:11;;;;;;;31.92;12.93;;;11.30;75.60;;;;;;5028579;28;20060;-63
2021/05/27 05:59:37;;;;;;;24.92;12.27;;;11.30;75.30;;;;;;5023302;28;20049;-63
2021/05/27 06:02:05;;;;;;;30.02;13.48;;;11.20;75.20;;;;;;4998592;28;20041;-63
2021/05/27 06:04:31;;;;;;;29.45;12.98;;;11.10;76.00;;;;;;4988892;28;20097;-62
2021/05/27 06:06:57;;;;;;;27.45;12.50;;;11.20;75.80;;;;;;5006959;28;20032;-62
2021/05/27 06:09:24;;;;;;;28.70;11.93;;;11.10;75.80;;;;;;5010249;28;20219;-60
2021/05/27 06:11:52;;;;;;;24.02;13.45;;;11.10;75.50;;;;;;5020300;28;20032;-64
2021/05/27 06:14:19;;;;;;;25.50;12.07;;;11.00;76.20;;;;;;4983823;28;20108;-64
2021/05/27 06:16:44;;;;;;;26.67;12.38;;;11.00;76.30;;;;;;5026033;28;20355;-54
2021/05/27 06:19:10;;;;;;;24.23;12.85;;;11.00;76.60;;;;;;5027657;28;20025;-57
2021/05/27 06:21:36;;;;;;;31.00;13.93;;;10.90;77.20;;;;;;5026903;28;20021;-58
2021/05/27 06:24:01;;;;;;;25.63;12.48;;;10.90;77.50;;;;;;5017760;28;20390;-59
2021/05/27 06:26:27;;;;;;;30.08;13.20;;;10.90;77.00;;;;;;5015956;28;20030;-60
2021/05/27 06:28:53;;;;;;;27.10;14.07;;;10.90;77.70;;;;;;5019047;28;20120;-58
2021/05/27 06:31:18;;;;;;;24.63;13.15;;;10.90;78.50;;;;;;5013245;28;20581;-58
2021/05/27 06:33:44;;;;;;;25.58;12.55;;;10.90;77.60;;;;;;5010907;28;20498;-57
2021/05/27 06:36:10;;;;;;;35.08;12.75;;;10.90;77.60;;;;;;5020085;28;20112;-58
2021/05/27 06:38:36;;;;;;;29.85;13.82;;;10.90;77.70;;;;;;4989825;28;20022;-58
2021/05/27 06:41:02;;;;;;;28.67;13.88;;;10.90;78.00;;;;;;5012264;28;20050;-58
2021/05/27 06:43:27;;;;;;;32.08;14.38;;;10.90;78.30;;;;;;5018464;28;20480;-57
2021/05/27 06:45:53;;;;;;;25.67;12.82;;;11.00;78.30;;;;;;5023049;28;20084;-58
2021/05/27 06:48:18;;;;;;;31.05;15.13;;;11.00;78.30;;;;;;5011171;28;20026;-57
2021/05/27 06:50:50;;;;;;;28.70;14.43;;;11.00;78.50;;;;;;5021142;28;20083;-57
2021/05/27 06:53:15;;;;;;;30.45;13.30;;;11.10;79.00;;;;;;5001252;28;20113;-58
2021/05/27 06:55:42;;;;;;;29.83;13.32;;;11.10;78.20;;;;;;5015040;28;20142;-58
2021/05/27 06:58:07;;;;;;;35.85;14.43;;;11.10;77.70;;;;;;5022995;28;20029;-57
2021/05/27 07:00:34;;;;;;;31.17;14.23;;;11.20;78.30;;;;;;5010150;28;20018;-58
2021/05/27 07:03:00;;;;;;;28.10;14.70;;;11.10;78.00;;;;;;5020756;28;20030;-58
2021/05/27 07:05:27;;;;;;;31.60;14.85;;;11.20;78.00;;;;;;5017647;28;20030;-65
2021/05/27 07:07:53;;;;;;;29.02;14.35;;;11.20;78.20;;;;;;4995205;28;20021;-64
2021/05/27 07:10:19;;;;;;;30.50;14.32;;;11.20;77.40;;;;;;5023932;28;20029;-64
2021/05/27 07:12:52;;;;;;;37.00;15.60;;;11.20;77.70;;;;;;5012205;28;20655;-65
2021/05/27 07:15:19;;;;;;;32.78;14.50;;;11.30;76.70;;;;;;4999486;28;20029;-65
2021/05/27 07:17:45;;;;;;;27.90;12.68;;;11.30;77.90;;;;;;5020625;28;20045;-63
2021/05/27 07:20:11;;;;;;;27.75;12.23;;;11.30;76.80;;;;;;5010435;28;20120;-63
2021/05/27 07:22:37;;;;;;;25.63;12.18;;;11.30;76.60;;;;;;5022653;28;20431;-63
2021/05/27 07:25:04;;;;;;;28.52;12.88;;;11.30;76.70;;;;;;5015210;28;20116;-64
2021/05/27 07:27:29;;;;;;;26.95;11.88;;;11.30;77.60;;;;;;5015115;28;20029;-64
2021/05/27 07:29:55;;;;;;;28.65;13.35;;;11.30;76.80;;;;;;5022000;28;20028;-64
2021/05/27 07:32:20;;;;;;;28.83;11.88;;;11.30;77.10;;;;;;5010255;28;20500;-64
2021/05/27 07:34:46;;;;;;;25.73;12.13;;;11.30;76.90;;;;;;5003582;28;20014;-64
2021/05/27 07:37:12;;;;;;;21.77;11.13;;;11.40;77.70;;;;;;4998496;28;20025;-64
2021/05/27 07:39:37;;;;;;;24.80;11.27;;;11.40;76.40;;;;;;5013713;28;20054;-65
2021/05/27 07:42:06;;;;;;;19.98;10.65;;;11.40;76.40;;;;;;5022367;28;20029;-64
2021/05/27 07:44:32;;;;;;;25.45;10.57;;;11.50;76.90;;;;;;5009873;28;20099;-64
2021/05/27 07:46:58;;;;;;;28.33;11.32;;;11.60;77.60;;;;;;5019299;28;20036;-66
2021/05/27 07:49:23;;;;;;;21.75;10.52;;;11.60;77.00;;;;;;5016827;28;20017;-65
2021/05/27 07:51:49;;;;;;;27.25;11.52;;;11.60;77.20;;;;;;5012550;28;20072;-64
2021/05/27 07:54:15;;;;;;;23.10;11.35;;;11.60;77.10;;;;;;5021477;28;20049;-65
2021/05/27 07:56:40;;;;;;;20.38;11.23;;;11.60;77.20;;;;;;5010322;28;20325;-66
2021/05/27 07:59:06;;;;;;;22.27;11.43;;;11.60;77.80;;;;;;5017018;28;20113;-66
2021/05/27 08:01:31;;;;;;;26.10;11.95;;;11.60;76.90;;;;;;5017334;28;20066;-64
2021/05/27 08:03:57;;;;;;;27.10;11.05;;;11.60;76.60;;;;;;5013574;28;20025;-63
2021/05/27 08:06:22;;;;;;;27.13;11.98;;;11.50;76.40;;;;;;5011147;28;20052;-62
2021/05/27 08:08:48;;;;;;;26.85;12.85;;;11.60;78.50;;;;;;5016868;28;20129;-64
2021/05/27 08:11:13;;;;;;;25.00;11.93;;;11.50;77.00;;;;;;5013483;28;20029;-60
2021/05/27 08:13:39;;;;;;;18.30;10.20;;;11.50;78.20;;;;;;5018030;28;20026;-60
2021/05/27 08:16:05;;;;;;;19.13;9.93;;;11.50;77.50;;;;;;5004677;28;20057;-60
2021/05/27 08:18:30;;;;;;;24.75;10.38;;;11.50;77.40;;;;;;5007872;28;20022;-60
2021/05/27 08:20:56;;;;;;;16.08;10.23;;;11.40;76.70;;;;;;5018450;28;20396;-60
2021/05/27 08:23:21;;;;;;;27.77;10.73;;;11.40;77.40;;;;;;5016845;28;21008;-60
2021/05/27 08:25:47;;;;;;;25.05;11.93;;;11.50;77.50;;;;;;5016987;28;20026;-60
2021/05/27 08:28:13;;;;;;;22.08;10.90;;;11.50;78.40;;;;;;5016965;28;20025;-60
2021/05/27 08:30:39;;;;;;;24.38;10.82;;;11.50;76.60;;;;;;5021598;28;20515;-59
2021/05/27 08:33:05;;;;;;;20.63;9.65;;;11.60;77.50;;;;;;5015459;28;20236;-59
2021/05/27 08:35:30;;;;;;;22.67;9.98;;;11.60;76.70;;;;;;4989676;28;20022;-58
2021/05/27 08:37:56;;;;;;;21.73;10.00;;;11.70;78.20;;;;;;5010149;28;20022;-60
2021/05/27 08:40:21;;;;;;;19.70;9.57;;;11.80;77.00;;;;;;5011176;28;20060;-60
2021/05/27 08:42:47;;;;;;;21.23;10.57;;;11.70;75.80;;;;;;5011297;28;20678;-60
2021/05/27 08:45:15;;;;;;;23.73;11.00;;;11.80;77.50;;;;;;5013104;28;20443;-60
2021/05/27 08:47:40;;;;;;;33.78;16.23;;;11.80;77.60;;;;;;4996321;28;20033;-61
2021/05/27 08:50:06;;;;;;;36.58;17.83;;;11.70;76.70;;;;;;5025549;28;20025;-59
2021/05/27 08:52:32;;;;;;;34.08;18.73;;;11.70;77.30;;;;;;5026762;28;20112;-62
2021/05/27 08:54:57;;;;;;;32.75;15.50;;;11.70;77.10;;;;;;5045215;28;20059;-60
2021/05/27 08:57:23;;;;;;;24.92;12.68;;;11.70;78.10;;;;;;5045041;28;20021;-60
2021/05/27 08:59:48;;;;;;;24.50;13.23;;;11.70;78.50;;;;;;5044310;28;20257;-60
2021/05/27 09:02:14;;;;;;;25.80;11.65;;;11.80;77.80;;;;;;5045529;28;20044;-60
2021/05/27 09:04:40;;;;;;;26.77;11.43;;;11.80;77.80;;;;;;5043711;28;20021;-59
2021/05/27 09:07:05;;;;;;;19.63;10.93;;;11.80;77.80;;;;;;5044940;28;20025;-61
2021/05/27 09:09:47;;;;;;;23.10;10.98;;;11.80;77.70;;;;;;5044837;28;20115;-60
2021/05/27 09:12:33;;;;;;;26.17;11.77;;;11.70;77.50;;;;;;5030759;28;20108;-60
2021/05/27 09:15:00;;;;;;;21.92;10.98;;;11.70;78.20;;;;;;5025145;28;20432;-60
2021/05/27 09:17:25;;;;;;;20.58;10.95;;;11.70;77.90;;;;;;5025417;28;20807;-58
2021/05/27 09:20:10;;;;;;;20.88;11.05;;;11.60;77.30;;;;;;5024562;28;20033;-60
2021/05/27 09:22:36;;;;;;;32.72;13.13;;;11.60;77.90;;;;;;5026094;28;20792;-61
2021/05/27 09:25:01;;;;;;;21.23;12.40;;;11.50;78.90;;;;;;5028349;28;20119;-67
2021/05/27 09:27:53;;;;;;;23.50;13.48;;;11.60;79.40;;;;;;5028682;28;20546;-67
2021/05/27 09:30:19;;;;;;;28.55;13.90;;;11.50;79.60;;;;;;5023603;28;20064;-68
2021/05/27 09:32:45;;;;;;;30.55;12.82;;;11.50;80.10;;;;;;5028594;28;20029;-62
2021/05/27 09:35:11;;;;;;;24.15;12.70;;;11.60;80.30;;;;;;4993322;28;20083;-66
2021/05/27 09:37:37;;;;;;;24.08;11.77;;;11.60;79.70;;;;;;5008531;28;20546;-66
2021/05/27 09:40:05;;;;;;;25.42;13.18;;;11.70;79.10;;;;;;4991945;28;20050;-66
2021/05/27 09:42:50;;;;;;;25.15;13.10;;;11.70;79.60;;;;;;5009455;28;20396;-65
2021/05/27 09:45:16;;;;;;;24.05;12.45;;;11.70;79.00;;;;;;4995146;28;20021;-66
2021/05/27 09:47:42;;;;;;;23.75;12.25;;;11.70;78.80;;;;;;5013665;28;20492;-66
2021/05/27 09:50:08;;;;;;;17.90;11.52;;;11.70;78.90;;;;;;4983978;28;20060;-67
2021/05/27 09:52:48;;;;;;;24.27;13.48;;;11.70;78.60;;;;;;5006910;28;20196;-67
2021/05/27 09:55:17;;;;;;;22.77;12.70;;;11.60;79.70;;;;;;5017583;28;20473;-67
2021/05/27 09:57:44;;;;;;;24.48;14.10;;;11.60;79.60;;;;;;4995765;28;20017;-66
2021/05/27 10:00:36;;;;;;;31.02;14.52;;;11.70;79.30;;;;;;5010690;28;20018;-66
2021/05/27 10:03:21;;;;;;;25.30;14.25;;;11.80;79.50;;;;;;5005050;28;20051;-67
2021/05/27 10:05:47;;;;;;;28.23;13.52;;;11.90;79.10;;;;;;5013095;28;20020;-67
2021/05/27 10:08:13;;;;;;;27.75;14.10;;;12.00;78.60;;;;;;5017224;28;20033;-66
2021/05/27 10:10:41;;;;;;;36.22;15.65;;;12.10;78.80;;;;;;5008420;28;20022;-67
2021/05/27 10:13:07;;;;;;;24.38;15.70;;;12.30;79.10;;;;;;5018910;28;20070;-66
2021/05/27 10:15:33;;;;;;;26.17;14.80;;;12.40;78.60;;;;;;4979066;28;20064;-67
2021/05/27 10:18:03;;;;;;;31.70;14.88;;;12.50;76.80;;;;;;4998555;28;20080;-68
2021/05/27 10:20:28;;;;;;;25.23;14.38;;;12.40;77.50;;;;;;5007069;28;20032;-67
2021/05/27 10:22:56;;;;;;;28.48;14.35;;;12.40;76.90;;;;;;5011384;28;20033;-67
2021/05/27 10:25:22;;;;;;;24.90;14.85;;;12.40;77.00;;;;;;5021327;28;20029;-66
2021/05/27 10:27:48;;;;;;;26.05;13.85;;;12.40;77.40;;;;;;5018140;28;20037;-67
2021/05/27 10:30:14;;;;;;;27.35;13.45;;;12.40;77.20;;;;;;4995911;28;20475;-61
2021/05/27 10:33:01;;;;;;;26.38;13.50;;;12.30;77.10;;;;;;5007773;28;20036;-60
2021/05/27 10:35:56;;;;;;;23.73;12.80;;;12.30;77.70;;;;;;4999194;28;20014;-62
2021/05/27 10:38:43;;;;;;;24.00;11.43;;;12.30;77.60;;;;;;5012761;28;20613;-62
2021/05/27 10:41:09;;;;;;;29.30;12.75;;;12.30;77.30;;;;;;5011452;28;20049;-61
2021/05/27 10:43:35;;;;;;;27.65;13.05;;;12.30;77.60;;;;;;5013670;28;20018;-61
2021/05/27 10:46:08;;;;;;;23.67;12.13;;;12.30;76.80;;;;;;5000831;28;20164;-61
2021/05/27 10:48:46;;;;;;;26.75;13.32;;;12.20;76.90;;;;;;5010397;28;20400;-60
2021/05/27 10:51:22;;;;;;;23.20;12.63;;;12.20;77.60;;;;;;5021114;28;20022;-60
2021/05/27 10:53:49;;;;;;;23.83;12.05;;;12.30;76.30;;;;;;5001098;28;20104;-60
2021/05/27 10:56:34;;;;;;;22.00;12.25;;;12.30;76.10;;;;;;5011972;28;20388;-60
2021/05/27 10:59:00;;;;;;;25.73;13.52;;;12.20;76.20;;;;;;5010612;28;20022;-60
2021/05/27 11:01:28;;;;;;;31.08;14.18;;;12.20;77.00;;;;;;5018263;28;20037;-59
2021/05/27 11:03:54;;;;;;;27.80;14.88;;;12.20;76.50;;;;;;5017268;28;20029;-60
2021/05/27 11:06:40;;;;;;;29.27;15.23;;;12.10;77.10;;;;;;5026426;28;20673;-60
2021/05/27 11:09:16;;;;;;;30.60;14.05;;;12.20;77.10;;;;;;5011253;28;20032;-60
2021/05/27 11:11:45;;;;;;;29.92;15.23;;;12.20;77.30;;;;;;5016502;28;20024;-60
2021/05/27 11:14:28;;;;;;;28.08;13.45;;;12.30;77.70;;;;;;5019690;28;20083;-60
2021/05/27 11:17:14;;;;;;;25.52;13.15;;;12.30;76.80;;;;;;5009758;28;20075;-60
2021/05/27 11:25:16;;;;;;;26.17;11.45;;;12.70;75.90;;;;;;5009675;28;20091;-63
2021/05/27 11:27:52;;;;;;;26.92;12.48;;;12.70;74.20;;;;;;4998152;28;20026;-60
2021/05/27 11:30:18;;;;;;;19.98;12.13;;;12.70;74.50;;;;;;5020883;28;20105;-61
2021/05/27 11:32:50;;;;;;;26.65;11.85;;;12.60;73.20;;;;;;5010973;28;20377;-61
2021/05/27 11:35:16;;;;;;;29.90;13.35;;;12.50;73.80;;;;;;5020962;28;20068;-61
2021/05/27 11:37:43;;;;;;;25.48;13.35;;;12.50;74.00;;;;;;5016570;28;20045;-60
2021/05/27 11:40:10;;;;;;;28.33;14.02;;;12.40;74.20;;;;;;5013491;28;20096;-60
2021/05/27 11:42:35;;;;;;;24.60;14.02;;;12.40;74.60;;;;;;5023362;28;20059;-61
2021/05/27 11:45:03;;;;;;;25.58;13.77;;;12.40;75.30;;;;;;5010484;28;20398;-61
2021/05/27 11:47:29;;;;;;;26.98;14.02;;;12.40;75.50;;;;;;5019686;28;20075;-60
2021/05/27 11:50:03;;;;;;;28.42;14.63;;;12.50;75.60;;;;;;5001448;28;20025;-60
2021/05/27 11:52:29;;;;;;;28.80;15.50;;;12.50;74.60;;;;;;5029545;28;20025;-59
2021/05/27 11:54:56;;;;;;;27.52;15.95;;;12.60;73.80;;;;;;5030413;28;20609;-60
2021/05/27 11:57:22;;;;;;;23.60;14.68;;;12.60;73.50;;;;;;5030208;28;20029;-60
2021/05/27 12:00:00;;;;;;;26.45;15.30;;;12.60;72.90;;;;;;5012509;28;20102;-60
2021/05/27 12:02:44;;;;;;;32.67;16.80;;;12.70;74.20;;;;;;5030595;28;20095;-60
2021/05/27 12:05:27;;;;;;;31.55;17.35;;;12.80;73.70;;;;;;5030234;28;20079;-60
2021/05/27 12:08:02;;;;;;;28.33;16.25;;;12.90;74.00;;;;;;5029915;28;20448;-60
2021/05/27 12:10:33;;;;;;;31.42;15.57;;;13.00;73.20;;;;;;5029975;28;20029;-60
2021/05/27 12:12:58;;;;;;;27.73;16.73;;;13.00;72.70;;;;;;5022316;28;20026;-60
2021/05/27 12:15:25;;;;;;;28.35;16.25;;;13.10;72.60;;;;;;5018883;28;20068;-60
2021/05/27 12:17:52;;;;;;;25.63;15.95;;;13.10;72.10;;;;;;5002534;28;20185;-61
2021/05/27 12:20:29;;;;;;;28.73;16.35;;;13.20;72.30;;;;;;5018624;28;20424;-60
2021/05/27 12:23:12;;;;;;;30.20;15.02;;;13.30;71.70;;;;;;5000390;28;20472;-60
2021/05/27 12:25:45;;;;;;;24.30;13.55;;;13.30;71.00;;;;;;5018633;28;20022;-60
2021/05/27 12:28:22;;;;;;;24.83;12.88;;;13.30;69.20;;;;;;5018544;28;20032;-61
2021/05/27 12:30:58;;;;;;;23.77;13.88;;;13.40;68.80;;;;;;5018218;28;20088;-61
2021/05/27 12:33:25;;;;;;;25.67;13.23;;;13.40;68.80;;;;;;5001781;28;20044;-61
2021/05/27 12:35:51;;;;;;;26.08;13.45;;;13.40;68.20;;;;;;5001522;28;20719;-59
2021/05/27 12:38:23;;;;;;;27.60;13.20;;;13.60;69.40;;;;;;5015102;28;20117;-59
2021/05/27 12:41:04;;;;;;;30.95;13.65;;;13.60;68.40;;;;;;5009607;28;20046;-59
2021/05/27 12:43:40;;;;;;;25.50;14.45;;;13.60;68.90;;;;;;5010219;28;20026;-59
2021/05/27 12:46:07;;;;;;;28.75;12.75;;;13.60;69.70;;;;;;5009838;28;20676;-59